Archdale, NC

3:26 AM EST on January 30, 2015 (GMT -0500)
KNCARCHD2 | Change Station
CLOSE
Current Station
Personal Weather Station
Location: Archdale, NC
Elevation: 801 ft
Nearby Weather Stations

Elev 801 ft 35.92 °N, 79.93 °W | Updated 1 minute ago

Overcast
Overcast
41.3 °F
Feels Like 41 °F
N
0.0
Wind Variable Wind from WSW
Gusts 5.0 mph

Today
High -- | Low -- °F
--% Chance of Precip.
Yesterday
High -- | Low -- °F
Precip. -- in
7:22 AM 5:44 PM
Waxing Gibbous, 81% visible
Pressure 29.97 in
Visibility 10.0 miles
Clouds Scattered Clouds 5500 ft
Scattered Clouds 7000 ft
Overcast 8000 ft
Windchill 41 °F
Dew Point 31 °F
Humidity 67%
Rainfall 0.00 in
Snow Depth Not available.
UV 0 out of 12
Pollen 1.30 out of 12
Air Quality Not available.
Flu Activity Not available.
METAR KGSO 300754Z 28007KT 10SM SCT055 SCT070 OVC080 06/M03 A2997 RMK AO2 SLP149 T00561033

More Conditions Fewer Conditions

Pressure 29.97 in
Visibility 10.0 miles
Clouds Scattered Clouds 5500 ft
Scattered Clouds 7000 ft
Overcast 8000 ft
Windchill 41 °F
Dew Point 31 °F
Humidity 67%
Rainfall 0.00 in
Snow Depth Not available.
UV 0 out of 12
Pollen 1.30 out of 12
Air Quality Not available.
Flu Activity Not available.
METAR KGSO 300754Z 28007KT 10SM SCT055 SCT070 OVC080 06/M03 A2997 RMK AO2 SLP149 T00561033

More Conditions Fewer Conditions

Nowcast | as of 3:15 am EST on January 30, 2015

Isolated showers or sprinkles will occur early this morning as a cold front approaches and moves through the area. With the showers...temperatures will be above freezing and mostly close to 40 degrees.

×

10-Day Weather Forecast

Almanac

Astronomy

Jan. 30, 2015 Rise Set
Actual Time
Civil Twilight
Nautical Twilight
Astronomical Twilight
Moon
Length of Visible Light
Length of Day
Tomorrow will be .
, % of the Moon is Illuminated

Today's Extremes

State Highs State Lows

Community

WunderPhotos

Upload Photos

1,791,726 photos uploaded!

WunderBlogs® & News

Nearby

Air Quality

  Air Quality AQ Index Pollutant
Not available.

Snow Depth

Station Depth Elevation

Earthquake Activity

City Distance Mag. Time & Date
Minimum magnitude displayed is 2.5.

Coastal Water Temperatures

Place Temperature

Nearby Weather Stations